Aviation Digital Data Service (ADDS)

Output produced by METARs form (0011 UTC 26 April 2017)
found at http://aviationweather.gov/adds/metars/
 
KGNV 252343Z 2600/2624 24006KT P6SM FEW250 
     FM260400 VRB02KT P6SM SKC 
     FM261500 22008KT P6SM SCT040